createdAt,value
2023-11-23T00:00:17.320Z,5.19
2023-11-23T00:02:44.114Z,5.01
2023-11-23T00:05:11.155Z,5.20
2023-11-23T00:07:37.898Z,5.02
2023-11-23T00:10:06.906Z,5.27
2023-11-23T00:12:33.723Z,5.05
2023-11-23T00:15:00.569Z,5.09
2023-11-23T00:17:27.324Z,4.83
2023-11-23T00:19:53.999Z,4.91
2023-11-23T00:22:20.736Z,4.76
2023-11-23T00:24:47.385Z,4.68
2023-11-23T00:27:15.440Z,4.89
2023-11-23T00:29:42.208Z,4.83
2023-11-23T00:32:09.033Z,4.96
2023-11-23T00:34:35.775Z,4.93
2023-11-23T00:37:02.475Z,5.02
2023-11-23T00:39:29.276Z,5.02
2023-11-23T00:41:56.030Z,4.92
2023-11-23T00:44:24.100Z,4.92
2023-11-23T00:46:50.774Z,4.66
2023-11-23T00:49:17.512Z,4.79
2023-11-23T00:51:44.316Z,4.74
2023-11-23T00:54:11.045Z,4.76
2023-11-23T00:56:37.817Z,4.79
2023-11-23T00:59:04.733Z,4.89
2023-11-23T01:01:32.825Z,4.80
2023-11-23T01:03:59.744Z,4.64
2023-11-23T01:06:27.439Z,4.62
2023-11-23T01:08:54.116Z,4.54
2023-11-23T01:11:20.787Z,4.69
2023-11-23T01:13:47.582Z,4.72
2023-11-23T01:16:14.261Z,4.53
2023-11-23T01:18:42.312Z,4.55
2023-11-23T01:21:09.061Z,4.58
2023-11-23T01:23:35.746Z,4.37
2023-11-23T01:26:02.462Z,4.35
2023-11-23T01:28:29.139Z,4.28
2023-11-23T01:31:20.556Z,4.03
2023-11-23T01:34:13.984Z,4.14
2023-11-23T01:36:40.750Z,4.08
2023-11-23T01:39:07.562Z,4.20
2023-11-23T01:41:34.274Z,4.13
2023-11-23T01:44:01.281Z,4.26
2023-11-23T01:46:28.032Z,4.37
2023-11-23T01:48:55.165Z,4.51
2023-11-23T01:51:23.357Z,4.64
2023-11-23T01:53:50.072Z,4.21
2023-11-23T01:56:16.834Z,4.25
2023-11-23T01:58:43.557Z,4.11
2023-11-23T02:01:10.277Z,4.28
2023-11-23T02:03:37.389Z,4.41
2023-11-23T02:06:05.026Z,4.38
2023-11-23T02:08:33.048Z,4.18
2023-11-23T02:10:59.802Z,4.13
2023-11-23T02:13:26.480Z,4.29
2023-11-23T02:15:53.729Z,4.18
2023-11-23T02:18:20.548Z,4.10
2023-11-23T02:20:47.290Z,3.83
2023-11-23T02:23:13.983Z,3.74
2023-11-23T02:25:42.069Z,3.83
2023-11-23T02:28:08.772Z,3.87
2023-11-23T02:30:35.520Z,3.91
2023-11-23T02:33:02.306Z,4.11
2023-11-23T02:35:29.681Z,4.32
2023-11-23T02:37:56.351Z,4.49
2023-11-23T02:40:23.125Z,4.49
2023-11-23T02:42:51.161Z,4.55
2023-11-23T02:45:17.961Z,4.43
2023-11-23T02:47:44.706Z,4.39
2023-11-23T02:50:11.972Z,4.48
2023-11-23T02:52:38.638Z,4.63
2023-11-23T02:55:06.209Z,4.64
2023-11-23T02:57:32.951Z,4.45
2023-11-23T03:00:01.024Z,4.44
2023-11-23T03:02:27.801Z,4.24
2023-11-23T03:04:54.531Z,4.40
2023-11-23T03:07:21.208Z,4.41
2023-11-23T03:09:47.920Z,4.50
2023-11-23T03:12:14.629Z,4.38
2023-11-23T03:14:41.318Z,4.54
2023-11-23T03:17:09.524Z,4.50
2023-11-23T03:19:36.314Z,4.36
2023-11-23T03:22:03.341Z,4.41
2023-11-23T03:24:30.123Z,4.31
2023-11-23T03:26:56.866Z,3.97
2023-11-23T03:29:23.594Z,4.10
2023-11-23T03:31:51.421Z,4.19
2023-11-23T03:34:19.501Z,4.35
2023-11-23T03:36:46.202Z,4.28
2023-11-23T03:39:13.088Z,4.27
2023-11-23T03:41:40.393Z,4.48
2023-11-23T03:44:07.090Z,4.62
2023-11-23T03:46:33.773Z,4.74
2023-11-23T03:49:00.510Z,4.65
2023-11-23T03:51:28.550Z,4.69
2023-11-23T03:53:55.394Z,4.54
2023-11-23T03:56:22.144Z,4.59
2023-11-23T03:58:48.992Z,4.75
2023-11-23T04:01:15.914Z,4.75
2023-11-23T04:03:42.716Z,4.59
2023-11-23T04:06:09.743Z,4.55
2023-11-23T04:08:38.307Z,4.62
2023-11-23T04:11:05.711Z,4.34
2023-11-23T04:13:32.433Z,4.13
2023-11-23T04:15:59.176Z,3.96
2023-11-23T04:18:25.858Z,3.98
2023-11-23T04:20:52.691Z,4.10
2023-11-23T04:23:19.367Z,4.26
2023-11-23T04:25:47.459Z,4.46
2023-11-23T04:28:14.158Z,4.58
2023-11-23T04:30:40.858Z,4.65
2023-11-23T04:33:07.711Z,4.76
2023-11-23T04:35:34.445Z,4.75
2023-11-23T04:38:01.133Z,4.91
2023-11-23T04:40:27.783Z,4.96
2023-11-23T04:42:55.856Z,4.88
2023-11-23T04:45:22.649Z,4.94
2023-11-23T04:47:49.402Z,4.97
2023-11-23T04:50:18.131Z,5.01
2023-11-23T04:52:46.796Z,5.15
2023-11-23T04:55:13.504Z,5.19
2023-11-23T04:57:40.198Z,5.22
2023-11-23T05:00:09.591Z,5.20
2023-11-23T05:02:36.385Z,5.18
2023-11-23T05:05:03.222Z,5.22
2023-11-23T05:07:29.920Z,5.36
2023-11-23T05:09:56.598Z,5.27
2023-11-23T05:12:23.325Z,5.32
2023-11-23T05:14:50.136Z,5.42
2023-11-23T05:17:18.150Z,5.38
2023-11-23T05:19:44.861Z,5.28
2023-11-23T05:22:11.612Z,5.21
2023-11-23T05:24:38.350Z,5.28
2023-11-23T05:27:05.481Z,5.02
2023-11-23T05:29:32.220Z,4.98
2023-11-23T05:31:58.942Z,4.79
2023-11-23T05:34:26.982Z,4.59
2023-11-23T05:36:53.710Z,4.55
2023-11-23T05:39:20.831Z,4.70
2023-11-23T05:41:47.608Z,4.66
2023-11-23T05:44:14.342Z,4.89
2023-11-23T05:46:41.071Z,4.94
2023-11-23T05:49:08.250Z,4.75
2023-11-23T05:51:36.396Z,4.92
2023-11-23T05:54:03.246Z,5.03
2023-11-23T05:56:29.977Z,5.15
2023-11-23T05:58:56.644Z,5.07
2023-11-23T06:01:23.315Z,5.09
2023-11-23T06:03:50.200Z,5.15
2023-11-23T06:06:20.451Z,5.13
2023-11-23T06:08:48.717Z,5.13
2023-11-23T06:11:15.409Z,5.10
2023-11-23T06:13:44.035Z,5.01
2023-11-23T06:16:12.039Z,4.99
2023-11-23T06:18:38.887Z,5.10
2023-11-23T06:21:06.012Z,5.11
2023-11-23T06:23:32.713Z,4.73
2023-11-23T06:26:00.780Z,4.81
2023-11-23T06:28:27.455Z,4.73
2023-11-23T06:30:54.178Z,4.62
2023-11-23T06:33:20.976Z,4.89
2023-11-23T06:35:47.867Z,4.89
2023-11-23T06:38:14.546Z,4.82
2023-11-23T06:40:41.286Z,4.89
2023-11-23T06:43:09.303Z,4.94
2023-11-23T06:45:35.987Z,4.67
2023-11-23T06:48:02.841Z,4.89
2023-11-23T06:50:29.697Z,5.19
2023-11-23T06:52:56.350Z,4.98
2023-11-23T06:55:23.097Z,5.03
2023-11-23T06:57:49.901Z,4.78
2023-11-23T07:00:18.717Z,4.44
2023-11-23T07:02:45.423Z,4.30
2023-11-23T07:05:12.248Z,4.39
2023-11-23T07:07:38.939Z,4.52
2023-11-23T07:10:06.769Z,4.52
2023-11-23T07:12:33.477Z,4.39
2023-11-23T07:15:00.414Z,4.18
2023-11-23T07:17:28.506Z,4.05
2023-11-23T07:19:55.276Z,4.11
2023-11-23T07:22:21.971Z,4.11
2023-11-23T07:24:48.692Z,4.03
2023-11-23T07:27:15.497Z,4.14
2023-11-23T07:29:42.259Z,4.24
2023-11-23T07:32:09.000Z,4.33
2023-11-23T07:34:37.988Z,4.39
2023-11-23T07:37:04.656Z,4.53
2023-11-23T07:39:31.382Z,4.73
2023-11-23T07:41:58.172Z,4.77
2023-11-23T07:44:24.932Z,4.82
2023-11-23T07:46:51.611Z,4.83
2023-11-23T07:49:18.381Z,4.65
2023-11-23T07:51:46.552Z,4.90
2023-11-23T07:54:13.265Z,4.86
2023-11-23T07:56:39.957Z,4.92
2023-11-23T07:59:06.649Z,4.77
2023-11-23T08:01:33.377Z,4.88
2023-11-23T08:04:00.300Z,4.77
2023-11-23T08:06:27.138Z,4.82
2023-11-23T08:08:55.190Z,4.89
2023-11-23T08:11:21.970Z,4.64
2023-11-23T08:13:48.622Z,4.84
2023-11-23T08:16:15.405Z,4.66
2023-11-23T08:18:49.578Z,4.68
2023-11-23T08:21:17.085Z,4.76
2023-11-23T08:23:43.816Z,4.78
2023-11-23T08:26:12.004Z,4.76
2023-11-23T08:28:38.788Z,4.77
2023-11-23T08:31:07.600Z,4.84
2023-11-23T08:33:34.327Z,4.92
2023-11-23T08:36:01.162Z,4.81
2023-11-23T08:38:27.867Z,4.86
2023-11-23T08:40:54.576Z,4.72
2023-11-23T08:43:22.637Z,4.91
2023-11-23T08:45:49.378Z,5.06
2023-11-23T08:48:16.147Z,5.07
2023-11-23T08:50:42.891Z,5.25
2023-11-23T08:53:09.605Z,5.39
2023-11-23T08:55:36.340Z,5.59
2023-11-23T08:58:03.068Z,5.69
2023-11-23T09:00:31.204Z,5.73
2023-11-23T09:02:58.036Z,5.83
2023-11-23T09:05:24.946Z,5.91
2023-11-23T09:07:51.753Z,5.87
2023-11-23T09:10:18.631Z,5.86
2023-11-23T09:12:45.302Z,5.86
2023-11-23T09:15:12.073Z,5.86
2023-11-23T09:17:40.206Z,5.94
2023-11-23T09:20:08.468Z,5.95
2023-11-23T09:22:35.320Z,5.93
2023-11-23T09:25:02.106Z,5.66
2023-11-23T09:27:28.870Z,5.79
2023-11-23T09:29:55.650Z,5.87
2023-11-23T09:32:22.389Z,5.96
2023-11-23T09:34:50.390Z,5.97
2023-11-23T09:37:17.150Z,5.97
2023-11-23T09:39:43.984Z,5.83
2023-11-23T09:42:10.696Z,6.09
2023-11-23T09:44:37.635Z,6.21
2023-11-23T09:47:04.934Z,6.33
2023-11-23T09:49:31.669Z,6.05
2023-11-23T09:51:59.705Z,6.20
2023-11-23T09:54:26.505Z,6.06
2023-11-23T09:56:53.405Z,6.34
2023-11-23T09:59:20.108Z,6.30
2023-11-23T10:01:47.012Z,6.39
2023-11-23T10:04:13.887Z,6.42
2023-11-23T10:06:40.733Z,6.41
2023-11-23T10:09:08.991Z,6.50
2023-11-23T10:11:35.696Z,6.48
2023-11-23T10:14:02.412Z,6.27
2023-11-23T10:16:31.386Z,5.92
2023-11-23T10:18:58.169Z,6.20
2023-11-23T10:21:24.939Z,6.06
2023-11-23T10:23:51.607Z,5.85
2023-11-23T10:26:19.639Z,6.11
2023-11-23T10:28:46.334Z,6.17
2023-11-23T10:31:14.059Z,6.35
2023-11-23T10:33:41.052Z,6.50
2023-11-23T10:36:08.364Z,6.50
2023-11-23T10:38:43.238Z,6.52
2023-11-23T10:41:11.341Z,6.58
2023-11-23T10:43:39.339Z,6.73
2023-11-23T10:46:07.941Z,6.83
2023-11-23T10:48:34.737Z,7.00
2023-11-23T10:51:02.791Z,6.66
2023-11-23T10:53:29.895Z,6.66
2023-11-23T10:55:57.002Z,6.64
2023-11-23T10:58:23.658Z,6.33
2023-11-23T11:00:51.749Z,6.11
2023-11-23T11:03:18.449Z,6.32
2023-11-23T11:05:48.201Z,6.36
2023-11-23T11:08:17.686Z,6.34
2023-11-23T11:10:48.111Z,6.46
2023-11-23T11:13:16.181Z,6.18
2023-11-23T11:15:51.117Z,6.24
2023-11-23T11:18:21.331Z,6.49
2023-11-23T11:20:59.620Z,6.61
2023-11-23T11:23:36.451Z,6.84
2023-11-23T11:26:06.943Z,6.93
2023-11-23T11:28:33.807Z,6.97
2023-11-23T11:31:07.608Z,7.22
2023-11-23T11:33:34.518Z,7.53
2023-11-23T11:36:01.311Z,7.38
2023-11-23T11:38:28.086Z,7.48
2023-11-23T11:40:54.765Z,7.05
2023-11-23T11:43:21.952Z,6.84
2023-11-23T11:45:48.646Z,6.60
2023-11-23T11:48:16.789Z,6.70
2023-11-23T11:50:43.485Z,6.88
2023-11-23T11:53:10.170Z,7.11
2023-11-23T11:55:36.892Z,7.07
2023-11-23T11:58:05.687Z,7.37
2023-11-23T12:00:34.781Z,7.39
2023-11-23T12:03:01.628Z,7.23
2023-11-23T12:05:29.909Z,7.49
2023-11-23T12:07:56.683Z,7.70
2023-11-23T12:10:23.375Z,7.53
2023-11-23T12:12:50.100Z,7.76
2023-11-23T12:15:17.657Z,8.04
2023-11-23T12:17:50.865Z,7.98
2023-11-23T12:20:17.713Z,7.74
2023-11-23T12:22:45.725Z,7.93
2023-11-23T12:25:12.425Z,7.85
2023-11-23T12:27:41.965Z,7.78
2023-11-23T12:30:09.492Z,8.02
2023-11-23T12:32:36.219Z,7.63
2023-11-23T12:35:03.108Z,7.68
2023-11-23T12:37:29.801Z,7.37
2023-11-23T12:39:57.837Z,7.30
2023-11-23T12:42:24.671Z,7.34
2023-11-23T12:44:51.561Z,7.19
2023-11-23T12:47:18.364Z,7.40
2023-11-23T12:49:45.078Z,7.49
2023-11-23T12:52:11.796Z,7.76
2023-11-23T12:54:38.541Z,7.73
2023-11-23T12:57:06.739Z,7.87
2023-11-23T12:59:33.486Z,8.03
2023-11-23T13:02:00.366Z,7.72
2023-11-23T13:04:27.250Z,7.94
2023-11-23T13:06:53.984Z,8.00
2023-11-23T13:09:20.739Z,8.22
2023-11-23T13:11:47.446Z,8.46
2023-11-23T13:14:15.519Z,8.86
2023-11-23T13:16:42.216Z,8.90
2023-11-23T13:19:17.233Z,8.68
2023-11-23T13:21:53.476Z,9.18
2023-11-23T13:24:20.432Z,9.30
2023-11-23T13:26:47.144Z,9.69
2023-11-23T13:29:15.242Z,9.94
2023-11-23T13:31:41.980Z,10.20
2023-11-23T13:34:08.725Z,10.43
2023-11-23T13:36:35.498Z,10.59
2023-11-23T13:39:02.636Z,10.75
2023-11-23T13:41:29.339Z,10.96
2023-11-23T13:43:56.066Z,11.06
2023-11-23T13:46:24.135Z,10.85
2023-11-23T13:48:50.882Z,10.10
2023-11-23T13:51:17.577Z,10.40
2023-11-23T13:53:44.378Z,10.65
2023-11-23T13:56:11.075Z,10.52
2023-11-23T13:58:37.785Z,10.65
2023-11-23T14:01:04.577Z,10.86
2023-11-23T14:03:32.714Z,11.04
2023-11-23T14:05:59.471Z,10.76
2023-11-23T14:08:26.178Z,10.89
2023-11-23T14:10:52.835Z,11.08
2023-11-23T14:13:19.578Z,11.20
2023-11-23T14:15:46.443Z,11.24
2023-11-23T14:18:13.339Z,11.31
2023-11-23T14:20:41.576Z,11.52
2023-11-23T14:23:08.260Z,11.24
2023-11-23T14:25:35.008Z,11.34
2023-11-23T14:28:01.782Z,11.30
2023-11-23T14:30:28.587Z,10.92
2023-11-23T14:32:55.461Z,11.16
2023-11-23T14:35:22.962Z,11.27
2023-11-23T14:37:51.113Z,11.22
2023-11-23T14:40:17.913Z,11.24
2023-11-23T14:42:55.717Z,11.07
2023-11-23T14:45:24.014Z,11.10
2023-11-23T14:47:50.769Z,11.07
2023-11-23T14:50:17.673Z,10.95
2023-11-23T14:52:44.358Z,10.95
2023-11-23T14:55:12.431Z,10.97
2023-11-23T14:57:39.248Z,10.97
2023-11-23T15:00:08.553Z,10.95
2023-11-23T15:02:35.340Z,10.86
2023-11-23T15:05:02.024Z,10.79
2023-11-23T15:07:28.763Z,10.72
2023-11-23T15:09:55.475Z,10.76
2023-11-23T15:12:24.110Z,10.68
2023-11-23T15:14:51.991Z,10.60
2023-11-23T15:17:18.676Z,10.55
2023-11-23T15:19:45.426Z,10.45
2023-11-23T15:22:12.130Z,10.23
2023-11-23T15:24:38.906Z,10.17
2023-11-23T15:27:05.685Z,10.12
2023-11-23T15:29:33.758Z,10.01
2023-11-23T15:32:00.493Z,9.95
2023-11-23T15:34:27.225Z,9.85
2023-11-23T15:36:53.922Z,9.65
2023-11-23T15:39:20.673Z,9.14
2023-11-23T15:41:47.364Z,9.25
2023-11-23T15:44:14.255Z,9.33
2023-11-23T15:46:42.598Z,9.31
2023-11-23T15:49:09.966Z,9.14
2023-11-23T15:51:36.737Z,8.94
2023-11-23T15:54:03.621Z,8.81
2023-11-23T15:56:30.300Z,8.30
2023-11-23T15:58:56.991Z,8.24
2023-11-23T16:01:23.789Z,8.05
2023-11-23T16:03:51.944Z,8.03
2023-11-23T16:06:18.767Z,8.07
2023-11-23T16:08:45.791Z,8.00
2023-11-23T16:11:12.529Z,8.18
2023-11-23T16:13:41.219Z,8.08
2023-11-23T16:16:08.158Z,8.11
2023-11-23T16:18:34.932Z,8.15
2023-11-23T16:21:03.005Z,8.17
2023-11-23T16:23:29.707Z,8.05
2023-11-23T16:25:56.458Z,8.14
2023-11-23T16:28:23.156Z,8.19
2023-11-23T16:30:49.906Z,8.28
2023-11-23T16:33:16.796Z,8.29
2023-11-23T16:35:43.574Z,8.26
2023-11-23T16:38:11.659Z,8.21
2023-11-23T16:40:38.380Z,8.20
2023-11-23T16:43:05.117Z,8.18
2023-11-23T16:45:31.876Z,8.21
2023-11-23T16:47:58.640Z,8.16
2023-11-23T16:50:25.372Z,8.05
2023-11-23T16:52:52.117Z,7.99
2023-11-23T16:55:20.162Z,7.97
2023-11-23T16:57:47.074Z,8.04
2023-11-23T17:00:14.922Z,8.03
2023-11-23T17:02:41.713Z,7.93
2023-11-23T17:05:09.533Z,7.90
2023-11-23T17:07:36.262Z,7.91
2023-11-23T17:10:03.367Z,7.85
2023-11-23T17:12:31.686Z,7.84
2023-11-23T17:14:58.375Z,7.83
2023-11-23T17:17:25.111Z,7.80
2023-11-23T17:19:51.824Z,7.69
2023-11-23T17:22:18.650Z,7.58
2023-11-23T17:24:45.438Z,7.56
2023-11-23T17:27:12.216Z,7.56
2023-11-23T17:29:40.305Z,7.48
2023-11-23T17:32:07.494Z,7.44
2023-11-23T17:34:34.988Z,7.42
2023-11-23T17:37:01.863Z,7.27
2023-11-23T17:39:28.558Z,7.20
2023-11-23T17:41:55.317Z,7.10
2023-11-23T17:44:22.079Z,7.05
2023-11-23T17:46:50.257Z,7.07
2023-11-23T17:49:16.950Z,7.03
2023-11-23T17:51:43.718Z,6.96
2023-11-23T17:54:10.448Z,6.90
2023-11-23T17:56:37.165Z,6.88
2023-11-23T17:59:19.762Z,6.85
2023-11-23T18:01:53.927Z,6.71
2023-11-23T18:04:20.905Z,6.66
2023-11-23T18:06:47.839Z,6.67
2023-11-23T18:09:15.887Z,6.63
2023-11-23T18:11:45.632Z,6.54
2023-11-23T18:14:12.769Z,6.45
2023-11-23T18:16:39.551Z,6.43
2023-11-23T18:19:13.428Z,6.42
2023-11-23T18:21:40.209Z,6.33
2023-11-23T18:24:07.012Z,6.30
2023-11-23T18:26:33.862Z,6.29
2023-11-23T18:29:00.553Z,6.11
2023-11-23T18:31:27.642Z,6.13
2023-11-23T18:33:54.445Z,5.97
2023-11-23T18:36:22.721Z,5.89
2023-11-23T18:38:49.416Z,5.66
2023-11-23T18:41:16.226Z,5.55
2023-11-23T18:43:43.086Z,5.70
2023-11-23T18:46:09.796Z,5.63
2023-11-23T18:48:36.634Z,5.59
2023-11-23T18:51:03.535Z,5.66
2023-11-23T18:53:31.652Z,5.75
2023-11-23T18:55:58.477Z,5.84
2023-11-23T18:58:25.165Z,6.04
2023-11-23T19:00:52.138Z,5.96
2023-11-23T19:03:19.145Z,5.96
2023-11-23T19:05:45.953Z,5.92
2023-11-23T19:08:12.819Z,5.90
2023-11-23T19:10:40.979Z,5.76
2023-11-23T19:13:07.815Z,5.78
2023-11-23T19:15:34.851Z,5.79
2023-11-23T19:18:02.156Z,5.85
2023-11-23T19:20:30.637Z,5.65
2023-11-23T19:23:00.870Z,5.65
2023-11-23T19:25:30.490Z,5.64
2023-11-23T19:28:00.973Z,5.56
2023-11-23T19:30:28.604Z,5.57
2023-11-23T19:32:55.786Z,5.62
2023-11-23T19:35:23.093Z,5.58
2023-11-23T19:37:59.580Z,5.56
2023-11-23T19:40:28.623Z,5.67
2023-11-23T19:42:56.029Z,5.49
2023-11-23T19:45:25.580Z,5.58
2023-11-23T19:47:53.120Z,5.60
2023-11-23T19:50:23.812Z,5.60
2023-11-23T19:52:52.293Z,5.51
2023-11-23T19:55:21.942Z,5.58
2023-11-23T19:57:54.217Z,5.47
2023-11-23T20:00:25.073Z,5.53
2023-11-23T20:02:52.155Z,5.58
2023-11-23T20:05:26.863Z,5.53
2023-11-23T20:07:53.683Z,5.59
2023-11-23T20:10:20.376Z,5.65
2023-11-23T20:12:47.366Z,5.55
2023-11-23T20:15:14.380Z,5.66
2023-11-23T20:17:42.613Z,5.74
2023-11-23T20:20:10.708Z,5.53
2023-11-23T20:22:37.493Z,5.46
2023-11-23T20:25:05.071Z,5.53
2023-11-23T20:27:31.992Z,5.51
2023-11-23T20:29:58.828Z,5.48
2023-11-23T20:32:25.556Z,5.40
2023-11-23T20:34:53.827Z,5.37
2023-11-23T20:37:20.728Z,5.41
2023-11-23T20:39:47.562Z,5.57
2023-11-23T20:42:14.939Z,5.53
2023-11-23T20:44:41.704Z,5.48
2023-11-23T20:47:08.661Z,5.41
2023-11-23T20:49:35.406Z,5.32
2023-11-23T20:52:03.891Z,5.29
2023-11-23T20:54:30.833Z,5.19
2023-11-23T20:56:58.222Z,5.23
2023-11-23T20:59:25.619Z,5.27
2023-11-23T21:01:52.996Z,5.35
2023-11-23T21:04:22.029Z,5.28
2023-11-23T21:06:58.960Z,5.41
2023-11-23T21:09:30.875Z,5.31
2023-11-23T21:11:57.624Z,4.96
2023-11-23T21:14:24.877Z,4.82
2023-11-23T21:16:51.714Z,4.73
2023-11-23T21:19:18.574Z,4.67
2023-11-23T21:21:45.689Z,4.59
2023-11-23T21:24:12.605Z,4.62
2023-11-23T21:26:40.627Z,4.59
2023-11-23T21:29:10.301Z,4.46
2023-11-23T21:31:37.142Z,4.42
2023-11-23T21:34:03.978Z,4.53
2023-11-23T21:36:30.715Z,4.43
2023-11-23T21:38:57.728Z,4.48
2023-11-23T21:41:24.614Z,4.48
2023-11-23T21:43:52.679Z,4.59
2023-11-23T21:46:19.540Z,4.63
2023-11-23T21:48:46.241Z,4.63
2023-11-23T21:51:19.037Z,4.58
2023-11-23T21:53:45.906Z,4.72
2023-11-23T21:56:12.804Z,4.84
2023-11-23T21:58:39.577Z,4.80
2023-11-23T22:01:07.786Z,4.86
2023-11-23T22:03:34.666Z,4.80
2023-11-23T22:06:01.584Z,4.75
2023-11-23T22:08:28.328Z,4.73
2023-11-23T22:10:55.004Z,4.75
2023-11-23T22:13:21.743Z,4.79
2023-11-23T22:15:48.915Z,4.80
2023-11-23T22:18:17.845Z,4.90
2023-11-23T22:20:44.783Z,4.91
2023-11-23T22:23:12.111Z,5.00
2023-11-23T22:25:39.378Z,4.93
2023-11-23T22:28:06.957Z,4.95
2023-11-23T22:30:34.330Z,4.99
2023-11-23T22:33:01.198Z,5.04
2023-11-23T22:35:30.353Z,5.08
2023-11-23T22:37:57.766Z,5.11
2023-11-23T22:40:25.186Z,5.13
2023-11-23T22:42:52.320Z,5.24
2023-11-23T22:45:19.721Z,5.34
2023-11-23T22:47:46.500Z,5.27
2023-11-23T22:50:13.302Z,5.28
2023-11-23T22:52:41.320Z,5.32
2023-11-23T22:55:08.754Z,5.33
2023-11-23T22:57:35.505Z,5.34
2023-11-23T23:00:02.238Z,5.42
2023-11-23T23:02:29.180Z,5.46
2023-11-23T23:04:55.963Z,5.40
2023-11-23T23:07:22.703Z,5.42
2023-11-23T23:09:50.895Z,5.38
2023-11-23T23:12:17.651Z,5.28
2023-11-23T23:14:44.337Z,5.18
2023-11-23T23:17:11.037Z,5.14
2023-11-23T23:19:37.788Z,5.20
2023-11-23T23:22:09.223Z,5.27
2023-11-23T23:24:40.722Z,5.30
2023-11-23T23:27:08.751Z,5.33
2023-11-23T23:29:35.521Z,5.30
2023-11-23T23:32:02.271Z,5.31
2023-11-23T23:34:29.138Z,5.33
2023-11-23T23:36:55.952Z,5.31
2023-11-23T23:39:22.697Z,5.28
2023-11-23T23:41:49.440Z,5.31
2023-11-23T23:44:17.496Z,5.27
2023-11-23T23:46:44.185Z,5.34
2023-11-23T23:49:10.897Z,5.30
2023-11-23T23:51:37.608Z,5.32
2023-11-23T23:54:04.455Z,5.34
2023-11-23T23:56:31.187Z,5.39
2023-11-23T23:58:57.954Z,5.45
